sensor_id;sensor_type;location;lat;lon;timestamp;temperature;humidity
59847;DHT22;45728;48.788;2.302;2022-07-23T00:00:35;20.80;99.90
59847;DHT22;45728;48.788;2.302;2022-07-23T00:03:01;20.70;99.90
59847;DHT22;45728;48.788;2.302;2022-07-23T00:05:27;20.70;99.90
59847;DHT22;45728;48.788;2.302;2022-07-23T00:07:53;20.70;99.90
59847;DHT22;45728;48.788;2.302;2022-07-23T00:10:19;20.60;99.90
59847;DHT22;45728;48.788;2.302;2022-07-23T00:12:46;20.70;99.90
59847;DHT22;45728;48.788;2.302;2022-07-23T00:15:12;20.60;99.90
59847;DHT22;45728;48.788;2.302;2022-07-23T00:17:38;20.60;99.90
59847;DHT22;45728;48.788;2.302;2022-07-23T00:20:05;20.60;99.90
59847;DHT22;45728;48.788;2.302;2022-07-23T00:22:31;20.60;99.90
59847;DHT22;45728;48.788;2.302;2022-07-23T00:24:57;20.60;99.90
59847;DHT22;45728;48.788;2.302;2022-07-23T00:27:24;20.60;99.90
59847;DHT22;45728;48.788;2.302;2022-07-23T00:29:50;20.60;99.90
59847;DHT22;45728;48.788;2.302;2022-07-23T00:32:16;20.60;99.90
59847;DHT22;45728;48.788;2.302;2022-07-23T00:34:42;20.70;99.90
59847;DHT22;45728;48.788;2.302;2022-07-23T00:37:08;20.80;99.90
59847;DHT22;45728;48.788;2.302;2022-07-23T00:39:34;20.80;99.90
59847;DHT22;45728;48.788;2.302;2022-07-23T00:42:00;20.70;99.90
59847;DHT22;45728;48.788;2.302;2022-07-23T00:44:28;20.70;99.90
59847;DHT22;45728;48.788;2.302;2022-07-23T00:46:58;20.70;99.90
59847;DHT22;45728;48.788;2.302;2022-07-23T00:49:29;20.50;99.90
59847;DHT22;45728;48.788;2.302;2022-07-23T00:51:56;20.50;99.90
59847;DHT22;45728;48.788;2.302;2022-07-23T00:54:26;20.50;99.90
59847;DHT22;45728;48.788;2.302;2022-07-23T00:56:53;20.50;99.90
59847;DHT22;45728;48.788;2.302;2022-07-23T00:59:19;20.60;99.90
59847;DHT22;45728;48.788;2.302;2022-07-23T01:01:45;20.60;99.90
59847;DHT22;45728;48.788;2.302;2022-07-23T01:04:15;20.60;99.90
59847;DHT22;45728;48.788;2.302;2022-07-23T01:06:43;20.60;99.90
59847;DHT22;45728;48.788;2.302;2022-07-23T01:09:09;20.50;99.90
59847;DHT22;45728;48.788;2.302;2022-07-23T01:11:36;20.60;99.90
59847;DHT22;45728;48.788;2.302;2022-07-23T01:14:16;20.60;99.90
59847;DHT22;45728;48.788;2.302;2022-07-23T01:16:44;20.60;99.90
59847;DHT22;45728;48.788;2.302;2022-07-23T01:19:12;20.60;99.90
59847;DHT22;45728;48.788;2.302;2022-07-23T01:21:45;20.60;99.90
59847;DHT22;45728;48.788;2.302;2022-07-23T01:24:12;20.50;99.90
59847;DHT22;45728;48.788;2.302;2022-07-23T01:26:41;20.50;99.90
59847;DHT22;45728;48.788;2.302;2022-07-23T01:29:08;20.40;99.90
59847;DHT22;45728;48.788;2.302;2022-07-23T01:31:34;20.40;99.90
59847;DHT22;45728;48.788;2.302;2022-07-23T01:34:00;20.30;99.90
59847;DHT22;45728;48.788;2.302;2022-07-23T01:36:26;20.20;99.90
59847;DHT22;45728;48.788;2.302;2022-07-23T01:38:52;20.20;99.90
59847;DHT22;45728;48.788;2.302;2022-07-23T01:41:18;20.20;99.90
59847;DHT22;45728;48.788;2.302;2022-07-23T01:43:44;20.20;99.90
59847;DHT22;45728;48.788;2.302;2022-07-23T01:46:11;20.20;99.90
59847;DHT22;45728;48.788;2.302;2022-07-23T01:48:37;20.10;99.90
59847;DHT22;45728;48.788;2.302;2022-07-23T01:51:03;20.10;99.90
59847;DHT22;45728;48.788;2.302;2022-07-23T01:53:29;20.20;99.90
59847;DHT22;45728;48.788;2.302;2022-07-23T01:55:57;20.30;99.90
59847;DHT22;45728;48.788;2.302;2022-07-23T01:58:25;20.20;99.90
59847;DHT22;45728;48.788;2.302;2022-07-23T02:00:51;20.20;99.90
59847;DHT22;45728;48.788;2.302;2022-07-23T02:03:17;20.20;99.90
59847;DHT22;45728;48.788;2.302;2022-07-23T02:05:43;20.20;99.90
59847;DHT22;45728;48.788;2.302;2022-07-23T02:08:09;20.30;99.90
59847;DHT22;45728;48.788;2.302;2022-07-23T02:10:35;20.20;99.90
59847;DHT22;45728;48.788;2.302;2022-07-23T02:13:01;20.20;99.90
59847;DHT22;45728;48.788;2.302;2022-07-23T02:15:27;20.10;99.90
59847;DHT22;45728;48.788;2.302;2022-07-23T02:17:55;20.10;99.90
59847;DHT22;45728;48.788;2.302;2022-07-23T02:20:22;20.10;99.90
59847;DHT22;45728;48.788;2.302;2022-07-23T02:22:48;20.20;99.90
59847;DHT22;45728;48.788;2.302;2022-07-23T02:25:14;20.20;99.90
59847;DHT22;45728;48.788;2.302;2022-07-23T02:27:41;20.20;99.90
59847;DHT22;45728;48.788;2.302;2022-07-23T02:30:08;20.10;99.90
59847;DHT22;45728;48.788;2.302;2022-07-23T02:32:35;20.10;99.90
59847;DHT22;45728;48.788;2.302;2022-07-23T02:35:02;20.10;99.90
59847;DHT22;45728;48.788;2.302;2022-07-23T02:37:28;20.10;99.90
59847;DHT22;45728;48.788;2.302;2022-07-23T02:39:54;20.10;99.90
59847;DHT22;45728;48.788;2.302;2022-07-23T02:42:20;20.20;99.90
59847;DHT22;45728;48.788;2.302;2022-07-23T02:44:47;20.20;99.90
59847;DHT22;45728;48.788;2.302;2022-07-23T02:47:13;20.20;99.90
59847;DHT22;45728;48.788;2.302;2022-07-23T02:49:39;20.10;99.90
59847;DHT22;45728;48.788;2.302;2022-07-23T02:52:05;20.10;99.90
59847;DHT22;45728;48.788;2.302;2022-07-23T02:54:31;20.10;99.90
59847;DHT22;45728;48.788;2.302;2022-07-23T02:56:57;20.10;99.90
59847;DHT22;45728;48.788;2.302;2022-07-23T02:59:23;20.10;99.90
59847;DHT22;45728;48.788;2.302;2022-07-23T03:01:49;20.00;99.90
59847;DHT22;45728;48.788;2.302;2022-07-23T03:04:15;19.90;99.90
59847;DHT22;45728;48.788;2.302;2022-07-23T03:06:41;20.00;99.90
59847;DHT22;45728;48.788;2.302;2022-07-23T03:09:07;20.00;99.90
59847;DHT22;45728;48.788;2.302;2022-07-23T03:11:33;20.00;99.90
59847;DHT22;45728;48.788;2.302;2022-07-23T03:13:59;20.00;99.90
59847;DHT22;45728;48.788;2.302;2022-07-23T03:16:25;20.00;99.90
59847;DHT22;45728;48.788;2.302;2022-07-23T03:18:51;20.00;99.90
59847;DHT22;45728;48.788;2.302;2022-07-23T03:21:17;20.00;99.90
59847;DHT22;45728;48.788;2.302;2022-07-23T03:23:43;20.00;99.90
59847;DHT22;45728;48.788;2.302;2022-07-23T03:26:09;20.10;99.90
59847;DHT22;45728;48.788;2.302;2022-07-23T03:28:35;20.10;99.90
59847;DHT22;45728;48.788;2.302;2022-07-23T03:31:01;20.00;99.90
59847;DHT22;45728;48.788;2.302;2022-07-23T03:33:27;20.10;99.90
59847;DHT22;45728;48.788;2.302;2022-07-23T03:35:54;20.20;99.90
59847;DHT22;45728;48.788;2.302;2022-07-23T03:38:20;20.10;99.90
59847;DHT22;45728;48.788;2.302;2022-07-23T03:40:46;20.20;99.90
59847;DHT22;45728;48.788;2.302;2022-07-23T03:43:12;20.20;99.90
59847;DHT22;45728;48.788;2.302;2022-07-23T03:45:38;20.10;99.90
59847;DHT22;45728;48.788;2.302;2022-07-23T03:48:04;20.10;99.90
59847;DHT22;45728;48.788;2.302;2022-07-23T03:50:30;20.10;99.90
59847;DHT22;45728;48.788;2.302;2022-07-23T03:52:56;20.10;99.90
59847;DHT22;45728;48.788;2.302;2022-07-23T03:55:22;20.10;99.90
59847;DHT22;45728;48.788;2.302;2022-07-23T03:57:48;20.10;99.90
59847;DHT22;45728;48.788;2.302;2022-07-23T04:00:14;20.10;99.90
59847;DHT22;45728;48.788;2.302;2022-07-23T04:02:41;20.10;99.90
59847;DHT22;45728;48.788;2.302;2022-07-23T04:05:07;20.10;99.90
59847;DHT22;45728;48.788;2.302;2022-07-23T04:07:33;20.00;99.90
59847;DHT22;45728;48.788;2.302;2022-07-23T04:09:59;20.00;99.90
59847;DHT22;45728;48.788;2.302;2022-07-23T04:12:25;20.00;99.90
59847;DHT22;45728;48.788;2.302;2022-07-23T04:14:51;20.00;99.90
59847;DHT22;45728;48.788;2.302;2022-07-23T04:17:17;20.10;99.90
59847;DHT22;45728;48.788;2.302;2022-07-23T04:19:43;20.00;99.90
59847;DHT22;45728;48.788;2.302;2022-07-23T04:22:12;20.00;99.90
59847;DHT22;45728;48.788;2.302;2022-07-23T04:24:39;20.00;99.90
59847;DHT22;45728;48.788;2.302;2022-07-23T04:27:05;20.00;99.90
59847;DHT22;45728;48.788;2.302;2022-07-23T04:29:31;19.90;99.90
59847;DHT22;45728;48.788;2.302;2022-07-23T04:31:57;19.90;99.90
59847;DHT22;45728;48.788;2.302;2022-07-23T04:34:23;19.90;99.90
59847;DHT22;45728;48.788;2.302;2022-07-23T04:36:53;19.80;99.90
59847;DHT22;45728;48.788;2.302;2022-07-23T04:39:19;19.80;99.90
59847;DHT22;45728;48.788;2.302;2022-07-23T04:41:46;19.90;99.90
59847;DHT22;45728;48.788;2.302;2022-07-23T04:44:12;19.80;99.90
59847;DHT22;45728;48.788;2.302;2022-07-23T04:46:38;19.80;99.90
59847;DHT22;45728;48.788;2.302;2022-07-23T04:49:04;19.80;99.90
59847;DHT22;45728;48.788;2.302;2022-07-23T04:51:30;19.70;99.90
59847;DHT22;45728;48.788;2.302;2022-07-23T04:53:57;19.60;99.90
59847;DHT22;45728;48.788;2.302;2022-07-23T04:56:23;19.60;99.90
59847;DHT22;45728;48.788;2.302;2022-07-23T04:58:49;19.70;99.90
59847;DHT22;45728;48.788;2.302;2022-07-23T05:01:15;19.70;99.90
59847;DHT22;45728;48.788;2.302;2022-07-23T05:03:41;19.60;99.90
59847;DHT22;45728;48.788;2.302;2022-07-23T05:06:07;19.60;99.90
59847;DHT22;45728;48.788;2.302;2022-07-23T05:08:33;19.60;99.90
59847;DHT22;45728;48.788;2.302;2022-07-23T05:10:59;19.60;99.90
59847;DHT22;45728;48.788;2.302;2022-07-23T05:13:25;19.60;99.90
59847;DHT22;45728;48.788;2.302;2022-07-23T05:15:51;19.60;99.90
59847;DHT22;45728;48.788;2.302;2022-07-23T05:18:17;19.60;99.90
59847;DHT22;45728;48.788;2.302;2022-07-23T05:20:43;19.60;99.90
59847;DHT22;45728;48.788;2.302;2022-07-23T05:23:09;19.60;99.90
59847;DHT22;45728;48.788;2.302;2022-07-23T05:25:36;19.70;99.90
59847;DHT22;45728;48.788;2.302;2022-07-23T05:28:02;19.60;99.90
59847;DHT22;45728;48.788;2.302;2022-07-23T05:30:28;19.70;99.90
59847;DHT22;45728;48.788;2.302;2022-07-23T05:32:54;19.60;99.90
59847;DHT22;45728;48.788;2.302;2022-07-23T05:35:21;19.70;99.90
59847;DHT22;45728;48.788;2.302;2022-07-23T05:37:47;19.60;99.90
59847;DHT22;45728;48.788;2.302;2022-07-23T05:40:13;19.60;99.90
59847;DHT22;45728;48.788;2.302;2022-07-23T05:42:40;19.70;99.90
59847;DHT22;45728;48.788;2.302;2022-07-23T05:45:08;19.60;99.90
59847;DHT22;45728;48.788;2.302;2022-07-23T05:47:41;19.60;99.90
59847;DHT22;45728;48.788;2.302;2022-07-23T05:50:07;19.70;99.90
59847;DHT22;45728;48.788;2.302;2022-07-23T05:52:33;19.70;99.90
59847;DHT22;45728;48.788;2.302;2022-07-23T05:54:59;19.60;99.90
59847;DHT22;45728;48.788;2.302;2022-07-23T05:57:25;19.70;99.90
59847;DHT22;45728;48.788;2.302;2022-07-23T05:59:51;19.70;99.90
59847;DHT22;45728;48.788;2.302;2022-07-23T06:02:18;19.60;99.90
59847;DHT22;45728;48.788;2.302;2022-07-23T06:04:44;19.60;99.90
59847;DHT22;45728;48.788;2.302;2022-07-23T06:07:10;19.80;99.90
59847;DHT22;45728;48.788;2.302;2022-07-23T06:09:36;19.80;99.90
59847;DHT22;45728;48.788;2.302;2022-07-23T06:12:02;19.70;99.90
59847;DHT22;45728;48.788;2.302;2022-07-23T06:14:28;19.70;99.90
59847;DHT22;45728;48.788;2.302;2022-07-23T06:16:54;19.80;99.90
59847;DHT22;45728;48.788;2.302;2022-07-23T06:19:20;19.90;99.90
59847;DHT22;45728;48.788;2.302;2022-07-23T06:21:46;20.00;99.90
59847;DHT22;45728;48.788;2.302;2022-07-23T06:24:12;19.90;99.90
59847;DHT22;45728;48.788;2.302;2022-07-23T06:26:38;20.10;99.90
59847;DHT22;45728;48.788;2.302;2022-07-23T06:29:04;20.00;99.90
59847;DHT22;45728;48.788;2.302;2022-07-23T06:31:30;19.90;99.90
59847;DHT22;45728;48.788;2.302;2022-07-23T06:33:56;19.90;99.90
59847;DHT22;45728;48.788;2.302;2022-07-23T06:36:22;19.80;99.90
59847;DHT22;45728;48.788;2.302;2022-07-23T06:38:48;19.90;99.90
59847;DHT22;45728;48.788;2.302;2022-07-23T06:41:15;20.00;99.90
59847;DHT22;45728;48.788;2.302;2022-07-23T06:43:41;20.00;99.90
59847;DHT22;45728;48.788;2.302;2022-07-23T06:46:07;20.00;99.90
59847;DHT22;45728;48.788;2.302;2022-07-23T06:48:33;20.10;99.90
59847;DHT22;45728;48.788;2.302;2022-07-23T06:51:02;20.10;99.90
59847;DHT22;45728;48.788;2.302;2022-07-23T06:53:28;20.10;99.90
59847;DHT22;45728;48.788;2.302;2022-07-23T06:55:54;20.10;99.90
59847;DHT22;45728;48.788;2.302;2022-07-23T06:58:20;20.10;99.90
59847;DHT22;45728;48.788;2.302;2022-07-23T07:00:47;20.00;99.90
59847;DHT22;45728;48.788;2.302;2022-07-23T07:03:13;20.00;99.90
59847;DHT22;45728;48.788;2.302;2022-07-23T07:05:39;20.00;99.90
59847;DHT22;45728;48.788;2.302;2022-07-23T07:08:08;20.00;99.90
59847;DHT22;45728;48.788;2.302;2022-07-23T07:10:34;20.00;99.90
59847;DHT22;45728;48.788;2.302;2022-07-23T07:13:00;20.10;99.90
59847;DHT22;45728;48.788;2.302;2022-07-23T07:15:26;20.00;99.90
59847;DHT22;45728;48.788;2.302;2022-07-23T07:17:52;20.00;99.90
59847;DHT22;45728;48.788;2.302;2022-07-23T07:20:18;20.00;99.90
59847;DHT22;45728;48.788;2.302;2022-07-23T07:22:44;20.00;99.90
59847;DHT22;45728;48.788;2.302;2022-07-23T07:25:10;20.00;99.90
59847;DHT22;45728;48.788;2.302;2022-07-23T07:27:36;20.00;99.90
59847;DHT22;45728;48.788;2.302;2022-07-23T07:30:04;20.10;99.90
59847;DHT22;45728;48.788;2.302;2022-07-23T07:32:30;20.00;99.90
59847;DHT22;45728;48.788;2.302;2022-07-23T07:34:58;20.00;99.90
59847;DHT22;45728;48.788;2.302;2022-07-23T07:37:24;20.00;99.90
59847;DHT22;45728;48.788;2.302;2022-07-23T07:39:50;20.10;99.90
59847;DHT22;45728;48.788;2.302;2022-07-23T07:42:16;20.10;99.90
59847;DHT22;45728;48.788;2.302;2022-07-23T07:44:42;20.10;99.90
59847;DHT22;45728;48.788;2.302;2022-07-23T07:47:08;20.10;99.90
59847;DHT22;45728;48.788;2.302;2022-07-23T07:49:34;20.20;99.90
59847;DHT22;45728;48.788;2.302;2022-07-23T07:52:00;20.20;99.90
59847;DHT22;45728;48.788;2.302;2022-07-23T07:54:26;20.30;99.90
59847;DHT22;45728;48.788;2.302;2022-07-23T07:56:52;20.30;99.90
59847;DHT22;45728;48.788;2.302;2022-07-23T07:59:19;20.30;99.90
59847;DHT22;45728;48.788;2.302;2022-07-23T08:01:45;20.30;99.90
59847;DHT22;45728;48.788;2.302;2022-07-23T08:04:11;20.30;99.90
59847;DHT22;45728;48.788;2.302;2022-07-23T08:06:37;20.30;99.90
59847;DHT22;45728;48.788;2.302;2022-07-23T08:09:03;20.30;99.90
59847;DHT22;45728;48.788;2.302;2022-07-23T08:11:30;20.40;99.90
59847;DHT22;45728;48.788;2.302;2022-07-23T08:13:56;20.40;99.90
59847;DHT22;45728;48.788;2.302;2022-07-23T08:16:22;20.50;99.90
59847;DHT22;45728;48.788;2.302;2022-07-23T08:18:48;20.50;99.90
59847;DHT22;45728;48.788;2.302;2022-07-23T08:21:14;20.50;99.90
59847;DHT22;45728;48.788;2.302;2022-07-23T08:23:40;20.50;99.90
59847;DHT22;45728;48.788;2.302;2022-07-23T08:26:06;20.50;99.90
59847;DHT22;45728;48.788;2.302;2022-07-23T08:28:32;20.50;99.90
59847;DHT22;45728;48.788;2.302;2022-07-23T08:30:59;20.50;99.90
59847;DHT22;45728;48.788;2.302;2022-07-23T08:33:25;20.60;99.90
59847;DHT22;45728;48.788;2.302;2022-07-23T08:35:51;20.60;99.90
59847;DHT22;45728;48.788;2.302;2022-07-23T08:38:20;20.60;99.90
59847;DHT22;45728;48.788;2.302;2022-07-23T08:40:49;20.60;99.90
59847;DHT22;45728;48.788;2.302;2022-07-23T08:43:17;20.50;99.90
59847;DHT22;45728;48.788;2.302;2022-07-23T08:45:46;20.60;99.90
59847;DHT22;45728;48.788;2.302;2022-07-23T08:48:18;20.60;99.90
59847;DHT22;45728;48.788;2.302;2022-07-23T08:50:46;20.70;99.90
59847;DHT22;45728;48.788;2.302;2022-07-23T08:53:12;20.70;99.90
59847;DHT22;45728;48.788;2.302;2022-07-23T08:55:38;20.70;99.90
59847;DHT22;45728;48.788;2.302;2022-07-23T08:58:05;20.80;99.90
59847;DHT22;45728;48.788;2.302;2022-07-23T09:00:32;20.90;99.90
59847;DHT22;45728;48.788;2.302;2022-07-23T09:02:58;21.00;99.90
59847;DHT22;45728;48.788;2.302;2022-07-23T09:05:24;20.80;99.90
59847;DHT22;45728;48.788;2.302;2022-07-23T09:08:10;20.90;99.90
59847;DHT22;45728;48.788;2.302;2022-07-23T09:10:57;20.80;99.90
59847;DHT22;45728;48.788;2.302;2022-07-23T09:13:46;20.80;99.90
59847;DHT22;45728;48.788;2.302;2022-07-23T09:16:18;20.90;99.90
59847;DHT22;45728;48.788;2.302;2022-07-23T09:21:25;21.10;99.90
59847;DHT22;45728;48.788;2.302;2022-07-23T09:23:58;21.30;99.90
59847;DHT22;45728;48.788;2.302;2022-07-23T09:26:36;21.40;99.90
59847;DHT22;45728;48.788;2.302;2022-07-23T09:34:16;21.50;99.90
59847;DHT22;45728;48.788;2.302;2022-07-23T09:36:43;21.40;99.90
59847;DHT22;45728;48.788;2.302;2022-07-23T09:39:10;21.40;99.90
59847;DHT22;45728;48.788;2.302;2022-07-23T09:41:41;21.60;99.90
59847;DHT22;45728;48.788;2.302;2022-07-23T09:44:10;21.70;99.90
59847;DHT22;45728;48.788;2.302;2022-07-23T09:46:37;21.60;99.90
59847;DHT22;45728;48.788;2.302;2022-07-23T09:49:12;21.60;99.90
59847;DHT22;45728;48.788;2.302;2022-07-23T09:51:52;21.40;99.90
59847;DHT22;45728;48.788;2.302;2022-07-23T09:54:33;21.30;99.90
59847;DHT22;45728;48.788;2.302;2022-07-23T09:57:04;21.40;99.90
59847;DHT22;45728;48.788;2.302;2022-07-23T09:59:34;21.60;99.90
59847;DHT22;45728;48.788;2.302;2022-07-23T10:02:01;21.70;99.90
59847;DHT22;45728;48.788;2.302;2022-07-23T10:04:29;21.70;99.90
59847;DHT22;45728;48.788;2.302;2022-07-23T10:06:57;21.80;99.90
59847;DHT22;45728;48.788;2.302;2022-07-23T10:09:30;21.90;99.90
59847;DHT22;45728;48.788;2.302;2022-07-23T10:12:02;21.80;99.90
59847;DHT22;45728;48.788;2.302;2022-07-23T10:14:47;21.90;99.90
59847;DHT22;45728;48.788;2.302;2022-07-23T10:17:14;21.90;99.90
59847;DHT22;45728;48.788;2.302;2022-07-23T10:19:41;21.90;99.90
59847;DHT22;45728;48.788;2.302;2022-07-23T10:22:13;22.30;99.90
59847;DHT22;45728;48.788;2.302;2022-07-23T10:30:13;22.80;99.90
59847;DHT22;45728;48.788;2.302;2022-07-23T10:35:26;22.80;99.90
59847;DHT22;45728;48.788;2.302;2022-07-23T10:38:00;22.90;99.90
59847;DHT22;45728;48.788;2.302;2022-07-23T10:40:30;22.90;99.90
59847;DHT22;45728;48.788;2.302;2022-07-23T10:42:59;22.80;99.90
59847;DHT22;45728;48.788;2.302;2022-07-23T10:45:33;22.60;99.90
59847;DHT22;45728;48.788;2.302;2022-07-23T10:48:21;22.60;99.90
59847;DHT22;45728;48.788;2.302;2022-07-23T10:56:48;22.70;99.90
59847;DHT22;45728;48.788;2.302;2022-07-23T10:59:15;22.50;99.90
59847;DHT22;45728;48.788;2.302;2022-07-23T11:01:41;22.60;99.90
59847;DHT22;45728;48.788;2.302;2022-07-23T11:04:07;22.70;99.90
59847;DHT22;45728;48.788;2.302;2022-07-23T11:18:18;23.00;99.90
59847;DHT22;45728;48.788;2.302;2022-07-23T11:20:21;22.90;99.90
59847;DHT22;45728;48.788;2.302;2022-07-23T11:22:54;22.80;99.90
59847;DHT22;45728;48.788;2.302;2022-07-23T11:28:17;22.70;99.90
59847;DHT22;45728;48.788;2.302;2022-07-23T11:30:46;22.80;99.90
59847;DHT22;45728;48.788;2.302;2022-07-23T11:35:45;23.10;99.90
59847;DHT22;45728;48.788;2.302;2022-07-23T11:38:18;23.40;99.90
59847;DHT22;45728;48.788;2.302;2022-07-23T11:40:53;23.60;99.90
59847;DHT22;45728;48.788;2.302;2022-07-23T11:43:21;23.60;99.90
59847;DHT22;45728;48.788;2.302;2022-07-23T11:45:49;23.30;99.90
59847;DHT22;45728;48.788;2.302;2022-07-23T11:48:24;23.50;99.90
59847;DHT22;45728;48.788;2.302;2022-07-23T11:50:52;23.80;99.90
59847;DHT22;45728;48.788;2.302;2022-07-23T11:53:32;23.70;99.90
59847;DHT22;45728;48.788;2.302;2022-07-23T11:56:06;24.00;99.90
59847;DHT22;45728;48.788;2.302;2022-07-23T11:58:32;23.90;99.90
59847;DHT22;45728;48.788;2.302;2022-07-23T12:00:59;23.70;99.90
59847;DHT22;45728;48.788;2.302;2022-07-23T12:03:25;23.70;99.90
59847;DHT22;45728;48.788;2.302;2022-07-23T12:05:56;23.80;99.90
59847;DHT22;45728;48.788;2.302;2022-07-23T12:08:23;23.70;99.90
59847;DHT22;45728;48.788;2.302;2022-07-23T12:10:49;23.50;99.90
59847;DHT22;45728;48.788;2.302;2022-07-23T12:13:17;23.70;99.90
59847;DHT22;45728;48.788;2.302;2022-07-23T12:15:49;24.00;99.90
59847;DHT22;45728;48.788;2.302;2022-07-23T12:18:23;24.40;99.90
59847;DHT22;45728;48.788;2.302;2022-07-23T12:20:55;24.00;99.90
59847;DHT22;45728;48.788;2.302;2022-07-23T12:23:23;23.80;99.90
59847;DHT22;45728;48.788;2.302;2022-07-23T12:25:51;24.10;99.90
59847;DHT22;45728;48.788;2.302;2022-07-23T12:28:19;24.30;99.90
59847;DHT22;45728;48.788;2.302;2022-07-23T12:30:50;24.30;99.90
59847;DHT22;45728;48.788;2.302;2022-07-23T12:35:58;23.70;99.90
59847;DHT22;45728;48.788;2.302;2022-07-23T12:38:26;24.20;99.90
59847;DHT22;45728;48.788;2.302;2022-07-23T12:40:59;24.20;99.90
59847;DHT22;45728;48.788;2.302;2022-07-23T12:43:31;24.00;99.90
59847;DHT22;45728;48.788;2.302;2022-07-23T12:46:06;24.20;99.90
59847;DHT22;45728;48.788;2.302;2022-07-23T12:48:33;24.30;99.90
59847;DHT22;45728;48.788;2.302;2022-07-23T12:51:03;24.20;99.90
59847;DHT22;45728;48.788;2.302;2022-07-23T12:53:41;24.00;99.90
59847;DHT22;45728;48.788;2.302;2022-07-23T12:56:13;23.80;99.90
59847;DHT22;45728;48.788;2.302;2022-07-23T13:04:01;24.40;99.90
59847;DHT22;45728;48.788;2.302;2022-07-23T13:06:38;24.60;99.90
59847;DHT22;45728;48.788;2.302;2022-07-23T13:09:07;24.50;99.90
59847;DHT22;45728;48.788;2.302;2022-07-23T13:11:34;24.50;99.90
59847;DHT22;45728;48.788;2.302;2022-07-23T13:14:00;24.40;99.90
59847;DHT22;45728;48.788;2.302;2022-07-23T13:16:27;24.70;99.90
59847;DHT22;45728;48.788;2.302;2022-07-23T13:18:54;24.80;99.90
59847;DHT22;45728;48.788;2.302;2022-07-23T13:21:20;24.60;99.90
59847;DHT22;45728;48.788;2.302;2022-07-23T13:23:46;24.90;99.90
59847;DHT22;45728;48.788;2.302;2022-07-23T13:26:12;25.30;99.90
59847;DHT22;45728;48.788;2.302;2022-07-23T13:28:38;25.30;99.90
59847;DHT22;45728;48.788;2.302;2022-07-23T13:31:04;24.90;99.90
59847;DHT22;45728;48.788;2.302;2022-07-23T13:33:30;25.10;99.90
59847;DHT22;45728;48.788;2.302;2022-07-23T13:35:56;25.50;99.90
59847;DHT22;45728;48.788;2.302;2022-07-23T13:38:22;25.50;99.90
59847;DHT22;45728;48.788;2.302;2022-07-23T13:40:50;25.10;99.90
59847;DHT22;45728;48.788;2.302;2022-07-23T13:43:18;25.00;99.90
59847;DHT22;45728;48.788;2.302;2022-07-23T13:45:45;25.00;99.90
59847;DHT22;45728;48.788;2.302;2022-07-23T13:48:12;25.20;99.90
59847;DHT22;45728;48.788;2.302;2022-07-23T13:50:39;25.20;99.90
59847;DHT22;45728;48.788;2.302;2022-07-23T13:53:24;25.50;99.90
59847;DHT22;45728;48.788;2.302;2022-07-23T13:55:52;25.50;99.90
59847;DHT22;45728;48.788;2.302;2022-07-23T13:58:18;25.10;99.90
59847;DHT22;45728;48.788;2.302;2022-07-23T14:00:47;25.20;99.90
59847;DHT22;45728;48.788;2.302;2022-07-23T14:03:14;25.50;99.90
59847;DHT22;45728;48.788;2.302;2022-07-23T14:05:40;25.70;99.90
59847;DHT22;45728;48.788;2.302;2022-07-23T14:08:07;25.80;99.90
59847;DHT22;45728;48.788;2.302;2022-07-23T14:10:34;25.50;99.90
59847;DHT22;45728;48.788;2.302;2022-07-23T14:13:00;25.60;99.90
59847;DHT22;45728;48.788;2.302;2022-07-23T14:15:28;25.90;99.90
59847;DHT22;45728;48.788;2.302;2022-07-23T14:17:54;25.90;99.90
59847;DHT22;45728;48.788;2.302;2022-07-23T14:20:21;26.20;99.90
59847;DHT22;45728;48.788;2.302;2022-07-23T14:22:48;26.40;99.90
59847;DHT22;45728;48.788;2.302;2022-07-23T14:25:15;26.00;99.90
59847;DHT22;45728;48.788;2.302;2022-07-23T14:27:41;26.10;99.90
59847;DHT22;45728;48.788;2.302;2022-07-23T14:30:08;26.20;99.90
59847;DHT22;45728;48.788;2.302;2022-07-23T14:32:35;26.10;99.90
59847;DHT22;45728;48.788;2.302;2022-07-23T14:35:03;26.10;99.90
59847;DHT22;45728;48.788;2.302;2022-07-23T14:37:29;26.40;99.90
59847;DHT22;45728;48.788;2.302;2022-07-23T14:39:55;26.70;99.90
59847;DHT22;45728;48.788;2.302;2022-07-23T14:42:21;26.30;99.90
59847;DHT22;45728;48.788;2.302;2022-07-23T14:44:47;26.20;99.90
59847;DHT22;45728;48.788;2.302;2022-07-23T14:47:13;26.50;99.90
59847;DHT22;45728;48.788;2.302;2022-07-23T14:49:39;26.60;99.90
59847;DHT22;45728;48.788;2.302;2022-07-23T14:52:06;26.30;99.90
59847;DHT22;45728;48.788;2.302;2022-07-23T14:54:33;26.50;99.90
59847;DHT22;45728;48.788;2.302;2022-07-23T14:57:00;26.70;99.90
59847;DHT22;45728;48.788;2.302;2022-07-23T14:59:27;26.70;99.90
59847;DHT22;45728;48.788;2.302;2022-07-23T15:01:53;26.50;99.90
59847;DHT22;45728;48.788;2.302;2022-07-23T15:04:20;26.50;99.90
59847;DHT22;45728;48.788;2.302;2022-07-23T15:06:47;26.20;99.90
59847;DHT22;45728;48.788;2.302;2022-07-23T15:09:13;26.30;99.90
59847;DHT22;45728;48.788;2.302;2022-07-23T15:11:40;26.50;99.90
59847;DHT22;45728;48.788;2.302;2022-07-23T15:14:07;26.50;99.90
59847;DHT22;45728;48.788;2.302;2022-07-23T15:16:34;26.40;99.90
59847;DHT22;45728;48.788;2.302;2022-07-23T15:19:01;26.30;99.90
59847;DHT22;45728;48.788;2.302;2022-07-23T15:21:28;26.70;99.90
59847;DHT22;45728;48.788;2.302;2022-07-23T15:23:58;26.90;99.90
59847;DHT22;45728;48.788;2.302;2022-07-23T15:26:27;27.00;99.90
59847;DHT22;45728;48.788;2.302;2022-07-23T15:28:54;26.90;99.90
59847;DHT22;45728;48.788;2.302;2022-07-23T15:31:21;26.90;99.90
59847;DHT22;45728;48.788;2.302;2022-07-23T15:33:47;26.50;99.90
59847;DHT22;45728;48.788;2.302;2022-07-23T15:36:13;26.50;99.90
59847;DHT22;45728;48.788;2.302;2022-07-23T15:38:39;26.60;99.90
59847;DHT22;45728;48.788;2.302;2022-07-23T15:41:05;26.80;99.90
59847;DHT22;45728;48.788;2.302;2022-07-23T15:43:32;26.90;99.90
59847;DHT22;45728;48.788;2.302;2022-07-23T15:45:58;27.00;99.90
59847;DHT22;45728;48.788;2.302;2022-07-23T15:48:24;26.80;99.90
59847;DHT22;45728;48.788;2.302;2022-07-23T15:50:51;26.90;99.90
59847;DHT22;45728;48.788;2.302;2022-07-23T15:53:17;26.90;99.90
59847;DHT22;45728;48.788;2.302;2022-07-23T15:55:43;26.80;99.90
59847;DHT22;45728;48.788;2.302;2022-07-23T15:58:10;26.80;99.90
59847;DHT22;45728;48.788;2.302;2022-07-23T16:00:36;26.90;99.90
59847;DHT22;45728;48.788;2.302;2022-07-23T16:03:03;26.80;99.70
59847;DHT22;45728;48.788;2.302;2022-07-23T16:05:29;26.50;99.90
59847;DHT22;45728;48.788;2.302;2022-07-23T16:07:55;26.50;99.90
59847;DHT22;45728;48.788;2.302;2022-07-23T16:10:21;26.50;99.90
59847;DHT22;45728;48.788;2.302;2022-07-23T16:12:48;26.50;99.80
59847;DHT22;45728;48.788;2.302;2022-07-23T16:15:14;26.70;99.80
59847;DHT22;45728;48.788;2.302;2022-07-23T16:17:40;26.90;99.80